sensor_id;sensor_type;location;lat;lon;timestamp;pressure;altitude;pressure_sealevel;temperature;humidity
55317;BME280;41178;48.956;8.130;2023-04-23T00:03:13;98922.66;;;15.38;52.75
55317;BME280;41178;48.956;8.130;2023-04-23T00:08:17;98939.03;;;14.77;54.01
55317;BME280;41178;48.956;8.130;2023-04-23T00:13:19;98936.59;;;15.99;51.10
55317;BME280;41178;48.956;8.130;2023-04-23T00:18:21;98966.66;;;16.49;50.73
55317;BME280;41178;48.956;8.130;2023-04-23T00:23:22;98881.31;;;14.62;53.26
55317;BME280;41178;48.956;8.130;2023-04-23T00:28:24;98951.16;;;14.87;54.07
55317;BME280;41178;48.956;8.130;2023-04-23T00:33:26;98899.88;;;13.48;57.26
55317;BME280;41178;48.956;8.130;2023-04-23T00:38:27;98986.63;;;14.42;55.73
55317;BME280;41178;48.956;8.130;2023-04-23T00:43:30;98975.56;;;14.01;56.12
55317;BME280;41178;48.956;8.130;2023-04-23T00:48:33;98945.13;;;13.33;58.02
55317;BME280;41178;48.956;8.130;2023-04-23T00:53:35;98987.53;;;13.68;57.45
55317;BME280;41178;48.956;8.130;2023-04-23T00:58:37;98957.50;;;13.71;56.80
55317;BME280;41178;48.956;8.130;2023-04-23T01:03:39;98962.81;;;14.27;55.95
55317;BME280;41178;48.956;8.130;2023-04-23T01:08:44;99002.25;;;15.05;54.14
55317;BME280;41178;48.956;8.130;2023-04-23T01:13:45;98979.59;;;14.40;55.41
55317;BME280;41178;48.956;8.130;2023-04-23T01:18:47;98996.25;;;14.19;55.79
55317;BME280;41178;48.956;8.130;2023-04-23T01:23:49;99001.50;;;13.95;56.47
55317;BME280;41178;48.956;8.130;2023-04-23T01:28:51;99017.22;;;15.13;54.10
55317;BME280;41178;48.956;8.130;2023-04-23T01:33:53;99028.97;;;15.07;54.32
55317;BME280;41178;48.956;8.130;2023-04-23T01:38:56;99033.38;;;15.13;53.60
55317;BME280;41178;48.956;8.130;2023-04-23T01:43:58;99009.81;;;14.43;55.77
55317;BME280;41178;48.956;8.130;2023-04-23T01:49:01;98993.06;;;13.11;59.41
55317;BME280;41178;48.956;8.130;2023-04-23T01:54:02;99047.16;;;13.83;58.27
55317;BME280;41178;48.956;8.130;2023-04-23T01:59:04;99057.59;;;13.29;59.76
55317;BME280;41178;48.956;8.130;2023-04-23T02:04:07;99039.66;;;14.04;56.95
55317;BME280;41178;48.956;8.130;2023-04-23T02:09:10;99145.63;;;15.97;53.91
55317;BME280;41178;48.956;8.130;2023-04-23T02:14:12;99071.03;;;15.43;53.99
55317;BME280;41178;48.956;8.130;2023-04-23T02:19:14;99083.75;;;14.21;56.92
55317;BME280;41178;48.956;8.130;2023-04-23T02:24:17;99117.94;;;15.54;54.22
55317;BME280;41178;48.956;8.130;2023-04-23T02:29:19;99068.03;;;14.86;54.79
55317;BME280;41178;48.956;8.130;2023-04-23T02:34:21;99059.16;;;13.37;58.52
55317;BME280;41178;48.956;8.130;2023-04-23T02:39:23;99084.19;;;14.37;55.67
55317;BME280;41178;48.956;8.130;2023-04-23T02:44:24;99086.81;;;14.74;54.60
55317;BME280;41178;48.956;8.130;2023-04-23T02:49:26;99080.53;;;14.31;55.22
55317;BME280;41178;48.956;8.130;2023-04-23T02:54:28;99037.34;;;13.71;56.70
55317;BME280;41178;48.956;8.130;2023-04-23T02:59:30;99132.69;;;15.51;52.80
55317;BME280;41178;48.956;8.130;2023-04-23T03:04:31;99149.38;;;15.72;53.08
55317;BME280;41178;48.956;8.130;2023-04-23T03:09:33;99044.53;;;13.95;55.61
55317;BME280;41178;48.956;8.130;2023-04-23T03:14:35;99102.66;;;14.33;55.61
55317;BME280;41178;48.956;8.130;2023-04-23T03:19:37;99076.63;;;12.96;58.82
55317;BME280;41178;48.956;8.130;2023-04-23T03:24:39;99135.81;;;13.46;58.00
55317;BME280;41178;48.956;8.130;2023-04-23T03:29:41;99103.69;;;13.77;56.92
55317;BME280;41178;48.956;8.130;2023-04-23T03:34:43;99118.75;;;13.78;56.08
55317;BME280;41178;48.956;8.130;2023-04-23T03:39:44;99136.59;;;14.53;55.10
55317;BME280;41178;48.956;8.130;2023-04-23T03:44:46;99058.34;;;13.37;55.79
55317;BME280;41178;48.956;8.130;2023-04-23T03:49:48;99155.94;;;15.10;53.11
55317;BME280;41178;48.956;8.130;2023-04-23T03:54:50;99161.69;;;15.14;52.38
55317;BME280;41178;48.956;8.130;2023-04-23T03:59:51;99092.06;;;14.20;53.67
55317;BME280;41178;48.956;8.130;2023-04-23T04:04:53;99171.97;;;15.05;52.48
55317;BME280;41178;48.956;8.130;2023-04-23T04:09:55;99218.72;;;16.07;51.37
55317;BME280;41178;48.956;8.130;2023-04-23T04:14:57;99124.38;;;14.99;53.10
55317;BME280;41178;48.956;8.130;2023-04-23T04:19:59;99087.25;;;14.03;55.42
55317;BME280;41178;48.956;8.130;2023-04-23T04:25:01;99136.34;;;14.73;54.28
55317;BME280;41178;48.956;8.130;2023-04-23T04:30:03;99107.97;;;14.21;55.94
55317;BME280;41178;48.956;8.130;2023-04-23T04:35:06;99130.44;;;14.46;55.26
55317;BME280;41178;48.956;8.130;2023-04-23T04:40:09;99126.91;;;14.64;55.12
55317;BME280;41178;48.956;8.130;2023-04-23T04:45:12;99139.47;;;14.88;54.03
55317;BME280;41178;48.956;8.130;2023-04-23T04:50:13;99095.16;;;13.98;56.34
55317;BME280;41178;48.956;8.130;2023-04-23T04:55:15;99135.63;;;14.47;55.36
55317;BME280;41178;48.956;8.130;2023-04-23T05:00:26;99100.44;;;13.68;56.86
55317;BME280;41178;48.956;8.130;2023-04-23T05:05:31;99101.63;;;13.28;58.36
55317;BME280;41178;48.956;8.130;2023-04-23T05:10:33;99133.78;;;14.11;56.84
55317;BME280;41178;48.956;8.130;2023-04-23T05:15:35;99123.22;;;14.09;56.40
55317;BME280;41178;48.956;8.130;2023-04-23T05:20:37;99081.22;;;13.14;58.56
55317;BME280;41178;48.956;8.130;2023-04-23T05:25:39;99089.41;;;13.26;58.17
55317;BME280;41178;48.956;8.130;2023-04-23T05:30:41;99102.09;;;13.44;58.10
55317;BME280;41178;48.956;8.130;2023-04-23T05:35:43;99180.56;;;14.47;55.00
55317;BME280;41178;48.956;8.130;2023-04-23T05:40:45;99075.59;;;13.22;57.53
55317;BME280;41178;48.956;8.130;2023-04-23T05:45:47;99107.22;;;13.52;56.94
55317;BME280;41178;48.956;8.130;2023-04-23T05:50:48;99156.47;;;14.15;55.84
55317;BME280;41178;48.956;8.130;2023-04-23T05:55:50;99142.97;;;13.96;56.16
55317;BME280;41178;48.956;8.130;2023-04-23T06:00:52;99183.63;;;14.32;55.61
55317;BME280;41178;48.956;8.130;2023-04-23T06:05:54;99208.91;;;14.49;55.10
55317;BME280;41178;48.956;8.130;2023-04-23T06:10:56;99135.41;;;13.87;55.51
55317;BME280;41178;48.956;8.130;2023-04-23T06:15:57;99120.97;;;13.37;56.83
55317;BME280;41178;48.956;8.130;2023-04-23T06:20:59;99221.69;;;14.72;54.45
55317;BME280;41178;48.956;8.130;2023-04-23T06:26:04;99222.53;;;14.73;54.55
55317;BME280;41178;48.956;8.130;2023-04-23T06:31:06;99176.13;;;14.34;55.06
55317;BME280;41178;48.956;8.130;2023-04-23T06:36:09;99153.13;;;14.56;53.92
55317;BME280;41178;48.956;8.130;2023-04-23T06:41:11;99135.03;;;14.45;54.07
55317;BME280;41178;48.956;8.130;2023-04-23T06:46:13;99133.78;;;14.97;53.06
55317;BME280;41178;48.956;8.130;2023-04-23T06:51:15;99154.94;;;15.47;52.40
55317;BME280;41178;48.956;8.130;2023-04-23T06:56:17;99032.34;;;14.11;53.85
55317;BME280;41178;48.956;8.130;2023-04-23T07:01:19;99137.06;;;16.64;49.76
55317;BME280;41178;48.956;8.130;2023-04-23T07:06:21;99022.41;;;14.72;53.60
55317;BME280;41178;48.956;8.130;2023-04-23T07:11:23;99037.25;;;15.05;53.62
55317;BME280;41178;48.956;8.130;2023-04-23T07:16:24;99056.88;;;15.72;52.44
55317;BME280;41178;48.956;8.130;2023-04-23T07:21:30;99011.81;;;14.89;53.56
55317;BME280;41178;48.956;8.130;2023-04-23T07:26:34;99020.75;;;15.49;52.14
55317;BME280;41178;48.956;8.130;2023-04-23T07:31:36;99078.13;;;16.32;51.33
55317;BME280;41178;48.956;8.130;2023-04-23T07:36:39;99016.84;;;16.78;50.78
55317;BME280;41178;48.956;8.130;2023-04-23T07:41:41;98905.94;;;15.12;52.08
55317;BME280;41178;48.956;8.130;2023-04-23T07:46:43;98991.31;;;15.83;51.64
55317;BME280;41178;48.956;8.130;2023-04-23T07:51:47;98988.09;;;16.38;50.60
55317;BME280;41178;48.956;8.130;2023-04-23T07:56:48;99046.13;;;17.32;49.14
55317;BME280;41178;48.956;8.130;2023-04-23T08:01:50;99010.47;;;17.35;49.60
55317;BME280;41178;48.956;8.130;2023-04-23T08:06:52;98880.63;;;16.74;49.02
55317;BME280;41178;48.956;8.130;2023-04-23T08:11:53;98932.31;;;17.34;48.75
55317;BME280;41178;48.956;8.130;2023-04-23T08:16:55;98910.81;;;17.44;48.26
55317;BME280;41178;48.956;8.130;2023-04-23T08:21:57;98854.94;;;15.75;50.24
55317;BME280;41178;48.956;8.130;2023-04-23T08:26:59;98911.88;;;18.15;46.37
55317;BME280;41178;48.956;8.130;2023-04-23T08:32:00;98889.03;;;18.00;46.54
55317;BME280;41178;48.956;8.130;2023-04-23T08:37:02;98921.59;;;19.08;44.97
55317;BME280;41178;48.956;8.130;2023-04-23T08:47:32;98846.94;;;17.38;45.88
55317;BME280;41178;48.956;8.130;2023-04-23T08:52:39;98794.41;;;17.83;45.63
55317;BME280;41178;48.956;8.130;2023-04-23T08:57:41;98792.88;;;17.92;44.99
55317;BME280;41178;48.956;8.130;2023-04-23T09:02:45;98821.75;;;17.38;45.19
55317;BME280;41178;48.956;8.130;2023-04-23T09:07:47;98803.84;;;18.13;44.88
55317;BME280;41178;48.956;8.130;2023-04-23T09:12:49;98810.63;;;18.91;43.66
55317;BME280;41178;48.956;8.130;2023-04-23T09:17:51;98797.63;;;18.13;44.43
55317;BME280;41178;48.956;8.130;2023-04-23T09:22:53;98716.69;;;17.73;45.10
55317;BME280;41178;48.956;8.130;2023-04-23T09:27:57;98785.47;;;19.84;43.14
55317;BME280;41178;48.956;8.130;2023-04-23T09:32:59;98659.66;;;18.28;43.34
55317;BME280;41178;48.956;8.130;2023-04-23T09:38:01;98664.97;;;18.07;44.26
55317;BME280;41178;48.956;8.130;2023-04-23T09:43:09;98648.34;;;17.88;43.41
55317;BME280;41178;48.956;8.130;2023-04-23T09:48:11;98707.44;;;18.44;43.27
55317;BME280;41178;48.956;8.130;2023-04-23T09:53:13;98676.78;;;18.97;41.50
55317;BME280;41178;48.956;8.130;2023-04-23T09:58:15;98708.00;;;18.09;44.02
55317;BME280;41178;48.956;8.130;2023-04-23T10:03:25;98674.41;;;19.93;41.70
55317;BME280;41178;48.956;8.130;2023-04-23T10:08:29;98677.78;;;18.27;41.82
55317;BME280;41178;48.956;8.130;2023-04-23T10:13:34;98680.06;;;17.66;44.06
55317;BME280;41178;48.956;8.130;2023-04-23T10:18:37;98663.13;;;18.76;43.52
55317;BME280;41178;48.956;8.130;2023-04-23T10:23:41;98667.31;;;17.94;44.60
55317;BME280;41178;48.956;8.130;2023-04-23T10:28:46;98651.81;;;20.34;40.65
55317;BME280;41178;48.956;8.130;2023-04-23T10:33:49;98648.16;;;18.53;42.62
55317;BME280;41178;48.956;8.130;2023-04-23T10:38:59;98625.31;;;19.33;40.73
55317;BME280;41178;48.956;8.130;2023-04-23T10:44:05;98604.19;;;19.55;40.83
55317;BME280;41178;48.956;8.130;2023-04-23T10:49:11;98587.28;;;19.89;39.73
55317;BME280;41178;48.956;8.130;2023-04-23T10:54:18;98586.53;;;19.58;40.83
55317;BME280;41178;48.956;8.130;2023-04-23T10:59:21;98536.25;;;18.42;40.83
55317;BME280;41178;48.956;8.130;2023-04-23T11:11:47;98621.44;;;17.12;45.07
55317;BME280;41178;48.956;8.130;2023-04-23T11:16:49;98630.28;;;16.14;44.21
55317;BME280;41178;48.956;8.130;2023-04-23T11:27:08;98647.19;;;15.70;43.56
55317;BME280;41178;48.956;8.130;2023-04-23T11:32:12;98616.88;;;17.12;43.30
55317;BME280;41178;48.956;8.130;2023-04-23T11:37:15;98595.06;;;17.57;42.77
55317;BME280;41178;48.956;8.130;2023-04-23T11:42:18;98563.13;;;17.53;42.70
55317;BME280;41178;48.956;8.130;2023-04-23T11:47:24;98572.34;;;16.93;43.94
55317;BME280;41178;48.956;8.130;2023-04-23T11:52:26;98562.09;;;16.68;42.49
55317;BME280;41178;48.956;8.130;2023-04-23T11:57:28;98579.03;;;18.45;41.76
55317;BME280;41178;48.956;8.130;2023-04-23T12:02:29;98537.25;;;17.68;42.36
55317;BME280;41178;48.956;8.130;2023-04-23T12:07:31;98532.13;;;16.69;43.02
55317;BME280;41178;48.956;8.130;2023-04-23T12:12:34;98563.13;;;17.53;42.28
55317;BME280;41178;48.956;8.130;2023-04-23T12:17:35;98561.06;;;17.66;42.12
55317;BME280;41178;48.956;8.130;2023-04-23T12:22:37;98551.03;;;18.19;42.24
55317;BME280;41178;48.956;8.130;2023-04-23T12:27:40;98466.06;;;18.25;40.58
55317;BME280;41178;48.956;8.130;2023-04-23T12:32:43;98469.63;;;18.31;41.03
55317;BME280;41178;48.956;8.130;2023-04-23T12:37:44;98458.56;;;17.75;40.81
55317;BME280;41178;48.956;8.130;2023-04-23T12:42:46;98473.97;;;19.25;39.52
55317;BME280;41178;48.956;8.130;2023-04-23T12:47:48;98515.16;;;17.81;40.14
55317;BME280;41178;48.956;8.130;2023-04-23T12:52:49;98468.50;;;17.59;39.90
55317;BME280;41178;48.956;8.130;2023-04-23T12:57:51;98455.88;;;19.10;39.18
55317;BME280;41178;48.956;8.130;2023-04-23T13:02:53;98422.22;;;19.11;38.33
55317;BME280;41178;48.956;8.130;2023-04-23T13:07:56;98425.47;;;18.87;39.17
55317;BME280;41178;48.956;8.130;2023-04-23T13:12:58;98392.63;;;17.96;40.05
55317;BME280;41178;48.956;8.130;2023-04-23T13:17:59;98382.00;;;19.44;39.07
55317;BME280;41178;48.956;8.130;2023-04-23T13:23:01;98394.88;;;18.87;39.57
55317;BME280;41178;48.956;8.130;2023-04-23T13:28:03;98372.03;;;19.29;39.30
55317;BME280;41178;48.956;8.130;2023-04-23T13:33:05;98277.28;;;18.77;38.69
55317;BME280;41178;48.956;8.130;2023-04-23T13:38:06;98352.06;;;18.83;39.20
55317;BME280;41178;48.956;8.130;2023-04-23T13:43:08;98285.38;;;17.49;40.28
55317;BME280;41178;48.956;8.130;2023-04-23T13:48:10;98321.97;;;18.85;38.48
55317;BME280;41178;48.956;8.130;2023-04-23T13:53:12;98307.91;;;18.78;39.42
55317;BME280;41178;48.956;8.130;2023-04-23T13:58:13;98289.66;;;19.09;39.56
55317;BME280;41178;48.956;8.130;2023-04-23T14:03:15;98276.66;;;17.26;40.70
55317;BME280;41178;48.956;8.130;2023-04-23T14:08:17;98296.53;;;18.71;39.67
55317;BME280;41178;48.956;8.130;2023-04-23T14:13:19;98251.22;;;19.02;39.75
55317;BME280;41178;48.956;8.130;2023-04-23T14:18:21;98304.72;;;18.30;40.58
55317;BME280;41178;48.956;8.130;2023-04-23T14:28:32;98233.97;;;19.32;39.03
55317;BME280;41178;48.956;8.130;2023-04-23T14:33:34;98213.66;;;19.25;39.55
55317;BME280;41178;48.956;8.130;2023-04-23T14:38:36;98197.63;;;19.33;39.43
55317;BME280;41178;48.956;8.130;2023-04-23T14:43:38;98199.59;;;18.52;39.68
55317;BME280;41178;48.956;8.130;2023-04-23T14:48:40;98195.94;;;18.88;40.01
55317;BME280;41178;48.956;8.130;2023-04-23T14:53:41;98176.50;;;19.30;40.33
55317;BME280;41178;48.956;8.130;2023-04-23T14:58:43;98177.50;;;19.00;39.11
55317;BME280;41178;48.956;8.130;2023-04-23T15:03:45;98125.81;;;17.39;40.55
55317;BME280;41178;48.956;8.130;2023-04-23T15:08:47;98165.56;;;18.20;40.22
55317;BME280;41178;48.956;8.130;2023-04-23T15:13:55;98191.84;;;17.79;43.99
55317;BME280;41178;48.956;8.130;2023-04-23T15:19:03;98270.31;;;16.47;48.23
55317;BME280;41178;48.956;8.130;2023-04-23T15:24:05;98347.09;;;16.02;51.97
55317;BME280;41178;48.956;8.130;2023-04-23T15:29:08;98252.19;;;13.60;55.42
55317;BME280;41178;48.956;8.130;2023-04-23T15:34:10;98332.16;;;14.11;53.93
55317;BME280;41178;48.956;8.130;2023-04-23T15:39:12;98368.16;;;14.77;52.88
55317;BME280;41178;48.956;8.130;2023-04-23T15:44:14;98328.69;;;16.96;49.77
55317;BME280;41178;48.956;8.130;2023-04-23T15:49:16;98241.03;;;17.55;47.98
55317;BME280;41178;48.956;8.130;2023-04-23T15:54:17;98205.41;;;16.85;48.35
55317;BME280;41178;48.956;8.130;2023-04-23T15:59:19;98255.19;;;18.08;48.58
55317;BME280;41178;48.956;8.130;2023-04-23T16:04:21;98275.69;;;16.10;51.40
55317;BME280;41178;48.956;8.130;2023-04-23T16:09:23;98318.81;;;16.04;52.26
55317;BME280;41178;48.956;8.130;2023-04-23T16:14:24;98273.09;;;17.21;50.75
55317;BME280;41178;48.956;8.130;2023-04-23T16:19:26;98334.63;;;15.68;52.83
55317;BME280;41178;48.956;8.130;2023-04-23T16:24:28;98309.94;;;15.82;51.40
55317;BME280;41178;48.956;8.130;2023-04-23T16:29:30;98365.28;;;16.12;52.26
55317;BME280;41178;48.956;8.130;2023-04-23T16:34:32;98291.25;;;17.30;48.96
55317;BME280;41178;48.956;8.130;2023-04-23T16:39:34;98302.00;;;19.41;46.64
55317;BME280;41178;48.956;8.130;2023-04-23T16:44:36;98402.50;;;16.69;51.50
55317;BME280;41178;48.956;8.130;2023-04-23T16:49:37;98442.38;;;16.57;52.51
55317;BME280;41178;48.956;8.130;2023-04-23T16:54:39;98408.78;;;15.93;53.49
55317;BME280;41178;48.956;8.130;2023-04-23T16:59:41;98286.00;;;18.54;48.28
55317;BME280;41178;48.956;8.130;2023-04-23T17:04:43;98300.34;;;17.92;49.39
55317;BME280;41178;48.956;8.130;2023-04-23T17:09:45;98375.91;;;17.36;50.44
55317;BME280;41178;48.956;8.130;2023-04-23T17:14:47;98400.81;;;16.03;53.19
55317;BME280;41178;48.956;8.130;2023-04-23T17:19:49;98388.81;;;15.67;54.17
55317;BME280;41178;48.956;8.130;2023-04-23T17:24:51;98349.88;;;16.39;53.33
55317;BME280;41178;48.956;8.130;2023-04-23T17:29:53;98313.09;;;16.66;52.62
55317;BME280;41178;48.956;8.130;2023-04-23T17:34:54;98297.53;;;17.41;50.98
55317;BME280;41178;48.956;8.130;2023-04-23T17:40:10;98330.84;;;16.24;52.13
55317;BME280;41178;48.956;8.130;2023-04-23T17:45:12;98346.50;;;17.50;50.03
55317;BME280;41178;48.956;8.130;2023-04-23T17:50:13;98370.16;;;16.42;50.13
55317;BME280;41178;48.956;8.130;2023-04-23T17:55:15;98468.59;;;14.90;52.10
55317;BME280;41178;48.956;8.130;2023-04-23T18:00:18;98400.31;;;16.06;50.53
55317;BME280;41178;48.956;8.130;2023-04-23T18:05:19;98401.00;;;16.51;49.96
55317;BME280;41178;48.956;8.130;2023-04-23T18:10:21;98443.66;;;15.00;51.23
55317;BME280;41178;48.956;8.130;2023-04-23T18:15:23;98476.69;;;15.46;50.79
55317;BME280;41178;48.956;8.130;2023-04-23T18:20:26;98482.88;;;15.85;50.59
55317;BME280;41178;48.956;8.130;2023-04-23T18:25:28;98508.41;;;15.39;50.69
55317;BME280;41178;48.956;8.130;2023-04-23T18:30:30;98482.78;;;14.85;51.55
55317;BME280;41178;48.956;8.130;2023-04-23T18:35:32;98463.91;;;13.70;53.80
55317;BME280;41178;48.956;8.130;2023-04-23T18:40:33;98564.28;;;14.11;53.56
55317;BME280;41178;48.956;8.130;2023-04-23T18:45:35;98541.38;;;15.46;51.63
55317;BME280;41178;48.956;8.130;2023-04-23T18:50:47;98515.44;;;13.79;53.41
55317;BME280;41178;48.956;8.130;2023-04-23T18:55:50;98570.94;;;13.85;54.35
55317;BME280;41178;48.956;8.130;2023-04-23T19:00:51;98516.94;;;12.62;55.20
55317;BME280;41178;48.956;8.130;2023-04-23T19:05:53;98598.09;;;12.27;57.06
55317;BME280;41178;48.956;8.130;2023-04-23T19:10:55;98648.22;;;12.63;57.81
55317;BME280;41178;48.956;8.130;2023-04-23T19:15:57;98632.63;;;13.02;55.90
55317;BME280;41178;48.956;8.130;2023-04-23T19:20:58;98601.78;;;11.89;59.41
55317;BME280;41178;48.956;8.130;2023-04-23T19:26:00;98572.44;;;11.50;59.51
55317;BME280;41178;48.956;8.130;2023-04-23T19:31:03;98645.84;;;13.46;55.86
55317;BME280;41178;48.956;8.130;2023-04-23T19:36:05;98602.41;;;12.09;56.96
55317;BME280;41178;48.956;8.130;2023-04-23T19:41:06;98650.25;;;12.98;55.66
55317;BME280;41178;48.956;8.130;2023-04-23T19:46:08;98663.28;;;12.64;56.45
55317;BME280;41178;48.956;8.130;2023-04-23T19:51:10;98634.38;;;12.66;55.62
55317;BME280;41178;48.956;8.130;2023-04-23T19:56:11;98623.44;;;12.49;55.24
55317;BME280;41178;48.956;8.130;2023-04-23T20:01:16;98640.13;;;12.51;55.53
55317;BME280;41178;48.956;8.130;2023-04-23T20:06:18;98604.41;;;11.20;58.27
55317;BME280;41178;48.956;8.130;2023-04-23T20:11:20;98654.78;;;11.36;58.60
55317;BME280;41178;48.956;8.130;2023-04-23T20:16:22;98671.97;;;12.23;55.87
55317;BME280;41178;48.956;8.130;2023-04-23T20:21:23;98689.16;;;11.96;56.57
55317;BME280;41178;48.956;8.130;2023-04-23T20:26:26;98663.03;;;11.35;57.35
55317;BME280;41178;48.956;8.130;2023-04-23T20:31:28;98727.28;;;11.98;56.19
55317;BME280;41178;48.956;8.130;2023-04-23T20:41:33;98689.47;;;11.24;56.69
55317;BME280;41178;48.956;8.130;2023-04-23T20:46:37;98673.84;;;10.69;57.33
55317;BME280;41178;48.956;8.130;2023-04-23T20:51:39;98731.13;;;11.45;55.87
55317;BME280;41178;48.956;8.130;2023-04-23T20:56:41;98749.38;;;11.62;56.39
55317;BME280;41178;48.956;8.130;2023-04-23T21:01:42;98762.28;;;11.78;55.65
55317;BME280;41178;48.956;8.130;2023-04-23T21:06:44;98750.13;;;11.76;54.80
55317;BME280;41178;48.956;8.130;2023-04-23T21:11:47;98728.59;;;10.74;56.71
55317;BME280;41178;48.956;8.130;2023-04-23T21:16:49;98776.69;;;11.45;55.49
55317;BME280;41178;48.956;8.130;2023-04-23T21:21:50;98764.72;;;12.12;54.06
55317;BME280;41178;48.956;8.130;2023-04-23T21:26:52;98724.88;;;10.68;57.33
55317;BME280;41178;48.956;8.130;2023-04-23T21:31:53;98755.00;;;11.15;56.96
55317;BME280;41178;48.956;8.130;2023-04-23T21:36:55;98729.22;;;10.69;57.78
55317;BME280;41178;48.956;8.130;2023-04-23T21:41:57;98768.84;;;11.83;56.63
55317;BME280;41178;48.956;8.130;2023-04-23T21:46:59;98791.38;;;12.32;54.53
55317;BME280;41178;48.956;8.130;2023-04-23T21:52:00;98777.63;;;12.22;54.65
55317;BME280;41178;48.956;8.130;2023-04-23T21:57:02;98784.66;;;11.91;56.53
55317;BME280;41178;48.956;8.130;2023-04-23T22:02:04;98782.78;;;11.66;56.33
55317;BME280;41178;48.956;8.130;2023-04-23T22:07:05;98752.84;;;11.69;55.20
55317;BME280;41178;48.956;8.130;2023-04-23T22:12:07;98787.25;;;11.34;56.54
55317;BME280;41178;48.956;8.130;2023-04-23T22:17:09;98775.28;;;12.32;54.25
55317;BME280;41178;48.956;8.130;2023-04-23T22:22:12;98791.75;;;12.79;52.65
55317;BME280;41178;48.956;8.130;2023-04-23T22:27:13;98843.19;;;13.69;51.80
55317;BME280;41178;48.956;8.130;2023-04-23T22:32:15;98797.31;;;13.52;51.81
55317;BME280;41178;48.956;8.130;2023-04-23T22:37:17;98772.16;;;13.27;51.90
55317;BME280;41178;48.956;8.130;2023-04-23T22:42:19;98768.47;;;13.28;52.40
55317;BME280;41178;48.956;8.130;2023-04-23T22:47:21;98753.56;;;12.59;53.94
55317;BME280;41178;48.956;8.130;2023-04-23T22:52:22;98763.69;;;12.93;52.55
55317;BME280;41178;48.956;8.130;2023-04-23T22:57:24;98752.31;;;12.36;54.39
55317;BME280;41178;48.956;8.130;2023-04-23T23:02:26;98734.03;;;11.51;55.54
55317;BME280;41178;48.956;8.130;2023-04-23T23:07:27;98744.31;;;11.47;56.09
55317;BME280;41178;48.956;8.130;2023-04-23T23:12:29;98706.94;;;10.95;56.35
55317;BME280;41178;48.956;8.130;2023-04-23T23:17:31;98738.94;;;11.15;56.85
55317;BME280;41178;48.956;8.130;2023-04-23T23:22:33;98763.28;;;11.45;56.66
55317;BME280;41178;48.956;8.130;2023-04-23T23:27:35;98748.66;;;11.48;55.88
55317;BME280;41178;48.956;8.130;2023-04-23T23:32:36;98752.59;;;11.07;56.53
55317;BME280;41178;48.956;8.130;2023-04-23T23:37:38;98717.22;;;10.92;56.52
55317;BME280;41178;48.956;8.130;2023-04-23T23:42:40;98769.19;;;11.22;57.05
55317;BME280;41178;48.956;8.130;2023-04-23T23:47:41;98732.28;;;10.73;57.91
55317;BME280;41178;48.956;8.130;2023-04-23T23:52:43;98728.44;;;10.55;58.27
55317;BME280;41178;48.956;8.130;2023-04-23T23:57:45;98730.72;;;11.49;55.44
